createdAt,value
2019-05-20T04:01:04.493Z,996.11
2019-05-20T04:08:04.402Z,996.12
2019-05-20T04:09:04.388Z,996.12
2019-05-20T04:11:04.380Z,996.13
2019-05-20T04:12:04.352Z,996.15
2019-05-20T04:16:04.310Z,996.13
2019-05-20T04:21:04.227Z,996.15
2019-05-20T04:23:04.209Z,996.21
2019-05-20T04:26:04.171Z,996.25
2019-05-20T04:27:04.198Z,996.29
2019-05-20T04:29:04.198Z,996.33
2019-05-20T04:30:04.167Z,996.32
2019-05-20T04:31:04.144Z,996.33
2019-05-20T04:35:20.659Z,996.37
2019-05-20T04:36:26.513Z,996.42
2019-05-20T04:38:26.487Z,996.52
2019-05-20T04:39:26.486Z,996.50
2019-05-20T04:40:26.470Z,996.50
2019-05-20T04:41:26.417Z,996.51
2019-05-20T04:42:26.448Z,996.54
2019-05-20T04:43:26.440Z,996.49
2019-05-20T04:44:26.417Z,996.44
2019-05-20T04:45:26.425Z,996.39
2019-05-20T04:46:26.362Z,996.40
2019-05-20T04:47:26.354Z,996.37
2019-05-20T04:48:26.387Z,996.40
2019-05-20T04:49:26.391Z,996.40
2019-05-20T04:50:26.329Z,996.41
2019-05-20T04:51:26.348Z,996.45
2019-05-20T04:52:26.331Z,996.45
2019-05-20T04:53:26.308Z,996.47
2019-05-20T04:54:26.301Z,996.48
2019-05-20T04:55:26.269Z,996.44
2019-05-20T04:56:29.243Z,996.47
2019-05-20T04:57:26.289Z,996.44
2019-05-20T04:58:26.391Z,996.45
2019-05-20T04:59:26.260Z,996.46
2019-05-20T05:00:26.212Z,996.44
2019-05-20T05:01:26.209Z,996.43
2019-05-20T05:02:26.237Z,996.42
2019-05-20T05:03:26.211Z,996.44
2019-05-20T05:04:26.212Z,996.40
2019-05-20T05:05:37.231Z,996.45
2019-05-20T05:06:48.594Z,996.38
2019-05-20T05:07:48.729Z,996.35
2019-05-20T05:08:48.582Z,996.36
2019-05-20T05:09:48.556Z,996.39
2019-05-20T05:10:48.513Z,996.39
2019-05-20T05:11:48.541Z,996.42
2019-05-20T05:12:48.527Z,996.40
2019-05-20T05:13:48.488Z,996.42
2019-05-20T05:14:48.500Z,996.45
2019-05-20T05:15:48.460Z,996.44
2019-05-20T05:16:48.452Z,996.43
2019-05-20T05:17:48.453Z,996.43
2019-05-20T05:18:48.432Z,996.44
2019-05-20T05:19:48.418Z,996.43
2019-05-20T05:20:48.444Z,996.42
2019-05-20T05:21:48.411Z,996.45
2019-05-20T05:22:48.430Z,996.42
2019-05-20T05:23:58.843Z,996.40
2019-05-20T05:25:10.608Z,996.35
2019-05-20T05:26:10.593Z,996.42
2019-05-20T05:27:10.624Z,996.41
2019-05-20T05:28:10.564Z,996.39
2019-05-20T05:29:10.545Z,996.36
2019-05-20T05:31:10.541Z,996.42
2019-05-20T05:32:10.517Z,996.41
2019-05-20T05:33:10.495Z,996.46
2019-05-20T05:34:10.495Z,996.45
2019-05-20T05:35:10.476Z,996.48
2019-05-20T05:36:10.481Z,996.45
2019-05-20T05:37:10.499Z,996.48
2019-05-20T05:38:10.466Z,996.41
2019-05-20T05:39:10.430Z,996.39
2019-05-20T05:40:10.426Z,996.46
2019-05-20T05:41:10.411Z,996.34
2019-05-20T05:42:10.395Z,996.37
2019-05-20T05:43:10.468Z,996.38
2019-05-20T05:44:10.382Z,996.33
2019-05-20T05:45:10.383Z,996.33
2019-05-20T05:46:10.338Z,996.30
2019-05-20T05:47:10.340Z,996.34
2019-05-20T05:48:10.327Z,996.32
2019-05-20T05:49:10.318Z,996.32
2019-05-20T05:50:10.325Z,996.34
2019-05-20T05:51:10.294Z,996.33
2019-05-20T05:52:10.292Z,996.32
2019-05-20T05:53:10.280Z,996.36
2019-05-20T05:54:10.316Z,996.37
2019-05-20T05:55:10.245Z,996.36
2019-05-20T05:56:10.256Z,996.36
2019-05-20T05:57:10.239Z,996.40
2019-05-20T05:58:10.219Z,996.40
2019-05-20T05:59:10.227Z,996.42
2019-05-20T06:00:10.237Z,996.47
2019-05-20T06:01:10.189Z,996.49
2019-05-20T06:02:10.176Z,996.52
2019-05-20T06:03:10.159Z,996.48
2019-05-20T06:04:10.147Z,996.48
2019-05-20T06:05:10.134Z,996.49
2019-05-20T06:06:12.634Z,996.54
2019-05-20T06:07:10.142Z,996.51
2019-05-20T06:08:10.107Z,996.56
2019-05-20T06:09:10.096Z,996.60
2019-05-20T06:10:10.084Z,996.58
2019-05-20T06:11:10.456Z,996.56
2019-05-20T06:12:10.059Z,996.61
2019-05-20T06:13:10.046Z,996.62
2019-05-20T06:14:10.055Z,996.58
2019-05-20T06:15:10.037Z,996.63
2019-05-20T06:16:10.014Z,996.62
2019-05-20T06:17:10.004Z,996.60
2019-05-20T06:18:10.019Z,996.59
2019-05-20T06:19:09.984Z,996.60
2019-05-20T06:20:09.976Z,996.62
2019-05-20T06:21:09.988Z,996.61
2019-05-20T06:22:09.960Z,996.63
2019-05-20T06:23:10.011Z,996.64
2019-05-20T06:24:09.939Z,996.69
2019-05-20T06:25:10.075Z,996.70
2019-05-20T06:26:09.919Z,996.70
2019-05-20T06:27:09.904Z,996.75
2019-05-20T06:28:09.889Z,996.77
2019-05-20T06:29:09.892Z,996.77
2019-05-20T06:30:09.865Z,996.80
2019-05-20T06:31:09.849Z,996.77
2019-05-20T06:32:09.843Z,996.80
2019-05-20T06:33:09.833Z,996.79
2019-05-20T06:34:09.816Z,996.73
2019-05-20T06:35:09.892Z,996.75
2019-05-20T06:36:09.790Z,996.72
2019-05-20T06:37:09.789Z,996.72
2019-05-20T06:38:12.798Z,996.74
2019-05-20T06:39:12.776Z,996.77
2019-05-20T06:40:09.750Z,996.80
2019-05-20T06:41:09.728Z,996.81
2019-05-20T06:42:09.722Z,996.80
2019-05-20T06:43:09.707Z,996.82
2019-05-20T06:44:09.712Z,996.84
2019-05-20T06:45:09.687Z,996.83
2019-05-20T06:46:09.681Z,996.88
2019-05-20T06:47:09.692Z,996.87
2019-05-20T06:48:09.693Z,996.90
2019-05-20T06:49:09.664Z,996.91
2019-05-20T06:50:10.935Z,996.98
2019-05-20T06:51:09.633Z,996.99
2019-05-20T06:52:13.825Z,997.02
2019-05-20T06:53:09.606Z,997.04
2019-05-20T06:54:09.592Z,997.08
2019-05-20T06:55:10.613Z,997.05
2019-05-20T06:56:09.657Z,997.06
2019-05-20T06:57:09.659Z,997.07
2019-05-20T06:58:09.636Z,996.99
2019-05-20T06:59:09.575Z,996.99
2019-05-20T07:00:09.616Z,996.98
2019-05-20T07:01:09.731Z,996.94
2019-05-20T07:02:09.563Z,997.02
2019-05-20T07:03:09.707Z,996.96
2019-05-20T07:04:10.701Z,996.97
2019-05-20T07:05:09.480Z,996.95
2019-05-20T07:06:09.552Z,996.89
2019-05-20T07:07:20.486Z,996.89
2019-05-20T07:08:42.119Z,996.88
2019-05-20T07:09:46.132Z,996.93
2019-05-20T07:10:42.107Z,996.96
2019-05-20T07:11:51.926Z,996.95
2019-05-20T09:31:38.987Z,997.63
2019-05-20T09:32:42.756Z,997.62
2019-05-20T09:33:38.907Z,997.60
2019-05-20T09:34:38.867Z,997.63
2019-05-20T09:35:38.878Z,997.68
2019-05-20T09:36:38.842Z,997.63
2019-05-20T09:37:38.853Z,997.66
2019-05-20T09:38:39.181Z,997.66
2019-05-20T09:39:38.810Z,997.66
2019-05-20T09:40:38.803Z,997.67
2019-05-20T09:41:38.805Z,997.66
2019-05-20T09:42:41.057Z,997.65
2019-05-20T09:43:38.975Z,997.60
2019-05-20T09:44:38.761Z,997.60
2019-05-20T09:45:38.750Z,997.59
2019-05-20T09:46:38.730Z,997.53
2019-05-20T09:47:38.737Z,997.53
2019-05-20T09:48:38.718Z,997.57
2019-05-20T09:49:38.769Z,997.53
2019-05-20T09:50:38.707Z,997.57
2019-05-20T09:51:38.718Z,997.56
2019-05-20T09:52:38.702Z,997.52
2019-05-20T09:53:38.674Z,997.58
2019-05-20T09:54:38.637Z,997.54
2019-05-20T09:55:38.655Z,997.59
2019-05-20T09:56:38.634Z,997.57
2019-05-20T09:57:38.628Z,997.57
2019-05-20T09:58:38.607Z,997.59
2019-05-20T09:59:43.314Z,997.61
2019-05-20T10:00:38.594Z,997.58
2019-05-20T10:01:40.162Z,997.62
2019-05-20T10:02:38.737Z,997.58
2019-05-20T10:03:38.559Z,997.61
2019-05-20T10:04:38.536Z,997.63
2019-05-20T10:05:38.586Z,997.59
2019-05-20T10:06:38.561Z,997.66
2019-05-20T10:07:38.541Z,997.63
2019-05-20T10:08:44.474Z,997.62
2019-05-20T10:10:00.513Z,997.65
2019-05-20T10:11:01.190Z,997.66
2019-05-20T10:12:00.480Z,997.68
2019-05-20T10:13:00.497Z,997.65
2019-05-20T10:14:00.468Z,997.63
2019-05-20T10:15:00.519Z,997.64
2019-05-20T10:16:00.446Z,997.58
2019-05-20T10:17:00.427Z,997.59
2019-05-20T10:18:00.448Z,997.62
2019-05-20T10:19:00.420Z,997.59
2019-05-20T10:20:00.392Z,997.62
2019-05-20T10:21:00.375Z,997.60
2019-05-20T10:22:00.386Z,997.61
2019-05-20T10:23:00.387Z,997.65
2019-05-20T10:24:00.374Z,997.64
2019-05-20T10:25:00.352Z,997.66
2019-05-20T10:26:00.322Z,997.64
2019-05-20T10:27:00.357Z,997.65
2019-05-20T10:28:00.291Z,997.61
2019-05-20T10:29:00.295Z,997.68
2019-05-20T10:30:00.476Z,997.71
2019-05-20T10:31:00.253Z,997.70
2019-05-20T10:32:00.270Z,997.69
2019-05-20T10:33:00.240Z,997.70
2019-05-20T10:34:00.240Z,997.72
2019-05-20T10:35:00.226Z,997.73
2019-05-20T10:36:00.243Z,997.67
2019-05-20T10:37:00.219Z,997.67
2019-05-20T10:38:00.242Z,997.70
2019-05-20T10:39:00.258Z,997.72
2019-05-20T10:40:00.176Z,997.70
2019-05-20T10:41:00.173Z,997.69
2019-05-20T10:42:00.147Z,997.67
2019-05-20T10:43:00.161Z,997.66
2019-05-20T10:44:00.125Z,997.73
2019-05-20T10:45:00.110Z,997.74
2019-05-20T10:46:00.102Z,997.74
2019-05-20T10:47:00.111Z,997.73
2019-05-20T10:48:00.077Z,997.78
2019-05-20T10:49:00.078Z,997.77
2019-05-20T10:50:00.075Z,997.77
2019-05-20T10:51:00.056Z,997.84
2019-05-20T10:52:03.062Z,997.72
2019-05-20T10:53:00.077Z,997.77
2019-05-20T10:53:59.999Z,997.80
2019-05-20T10:54:59.999Z,997.72
2019-05-20T10:56:00.230Z,997.73
2019-05-20T10:57:00.140Z,997.73
2019-05-20T10:57:59.981Z,997.78
2019-05-20T10:58:59.962Z,997.76
2019-05-20T10:59:59.939Z,997.80
2019-05-20T11:01:03.182Z,997.84
2019-05-20T11:01:59.924Z,997.78
2019-05-20T11:02:59.924Z,997.89
2019-05-20T11:03:59.899Z,997.79
2019-05-20T11:04:59.972Z,997.80
2019-05-20T11:05:59.901Z,997.81
2019-05-20T11:06:59.885Z,997.89
2019-05-20T11:07:59.866Z,997.80
2019-05-20T11:09:13.169Z,997.80
2019-05-20T11:10:21.568Z,997.91
2019-05-20T11:11:21.540Z,997.77
2019-05-20T11:12:21.651Z,997.81
2019-05-20T11:13:21.535Z,997.79
2019-05-20T11:14:21.520Z,997.84
2019-05-20T11:15:21.543Z,997.83
2019-05-20T11:16:21.495Z,997.84
2019-05-20T11:17:21.512Z,997.86
2019-05-20T11:18:21.477Z,997.88
2019-05-20T11:19:21.472Z,997.88
2019-05-20T11:20:21.466Z,997.88
2019-05-20T11:21:21.468Z,997.90
2019-05-20T11:22:21.453Z,997.91
2019-05-20T11:23:21.497Z,997.91
2019-05-20T11:24:21.422Z,997.90
2019-05-20T11:25:21.395Z,997.95
2019-05-20T11:26:21.391Z,997.96
2019-05-20T11:27:21.413Z,997.99
2019-05-20T11:28:21.391Z,997.96
2019-05-20T11:29:21.366Z,997.91
2019-05-20T11:30:21.346Z,997.91
2019-05-20T11:31:21.316Z,997.93
2019-05-20T11:32:21.328Z,997.89
2019-05-20T11:33:21.304Z,997.92
2019-05-20T11:34:21.305Z,997.92
2019-05-20T11:35:21.273Z,997.93
2019-05-20T11:36:21.269Z,997.94
2019-05-20T11:37:21.268Z,997.93
2019-05-20T11:38:21.239Z,997.94
2019-05-20T11:39:32.729Z,997.96
2019-05-20T11:40:43.945Z,997.96
2019-05-20T11:41:59.424Z,997.93
2019-05-20T11:43:05.963Z,997.96
2019-05-20T11:44:05.935Z,997.93
2019-05-20T11:45:05.941Z,997.96
2019-05-20T11:46:05.923Z,997.90
2019-05-20T11:47:05.909Z,997.94
2019-05-20T11:48:05.904Z,997.91
2019-05-20T11:49:05.897Z,997.97
2019-05-20T11:50:05.874Z,997.92
2019-05-20T11:51:05.896Z,997.92
2019-05-20T11:52:05.849Z,997.93
2019-05-20T11:53:05.835Z,997.95
2019-05-20T11:54:05.909Z,997.94
2019-05-20T11:55:05.832Z,997.97
2019-05-20T11:56:05.828Z,998.02
2019-05-20T11:57:05.796Z,998.00
2019-05-20T11:58:15.168Z,998.01
2019-05-20T11:59:27.504Z,997.98
2019-05-20T12:00:28.069Z,997.96
2019-05-20T12:01:27.474Z,997.99
2019-05-20T12:02:27.500Z,997.97
2019-05-20T12:03:27.884Z,997.98
2019-05-20T12:04:27.460Z,998.02
2019-05-20T12:05:27.433Z,998.01
2019-05-20T12:06:27.416Z,997.96
2019-05-20T12:07:27.426Z,998.02
2019-05-20T12:08:27.409Z,997.99
2019-05-20T12:09:28.060Z,997.96
2019-05-20T12:10:27.396Z,998.00
2019-05-20T12:11:27.374Z,998.03
2019-05-20T12:12:27.355Z,997.99
2019-05-20T12:13:27.357Z,997.99
2019-05-20T12:14:27.348Z,998.01
2019-05-20T12:15:27.326Z,998.04
2019-05-20T12:16:27.314Z,998.04
2019-05-20T12:17:27.334Z,998.04
2019-05-20T12:18:27.307Z,998.08
2019-05-20T12:19:27.306Z,998.06
2019-05-20T12:20:27.270Z,998.04
2019-05-20T12:21:27.267Z,998.09
2019-05-20T12:22:27.260Z,998.05
2019-05-20T12:23:27.250Z,998.10
2019-05-20T12:24:27.325Z,998.07
2019-05-20T12:25:27.227Z,998.06
2019-05-20T12:26:27.215Z,998.13
2019-05-20T12:27:27.211Z,998.07
2019-05-20T12:28:27.184Z,998.06
2019-05-20T12:29:27.172Z,998.13
2019-05-20T12:30:27.180Z,998.06
2019-05-20T12:31:27.189Z,998.18
2019-05-20T12:32:27.188Z,998.14
2019-05-20T12:33:27.173Z,998.16
2019-05-20T12:34:27.192Z,998.20
2019-05-20T12:35:27.168Z,998.19
2019-05-20T12:36:27.127Z,998.16
2019-05-20T12:37:27.099Z,998.19
2019-05-20T12:38:27.093Z,998.16
2019-05-20T12:39:27.185Z,998.13
2019-05-20T12:40:27.085Z,998.16
2019-05-20T12:41:27.114Z,998.13
2019-05-20T12:42:27.060Z,998.15
2019-05-20T12:43:30.056Z,998.11
2019-05-20T12:44:27.110Z,998.10
2019-05-20T12:45:27.053Z,998.08
2019-05-20T12:46:27.088Z,998.17
2019-05-20T12:47:30.124Z,998.17
2019-05-20T12:48:27.019Z,998.17
2019-05-20T12:49:27.192Z,998.15
2019-05-20T12:50:26.987Z,998.20
2019-05-20T12:51:26.969Z,998.17
2019-05-20T12:52:26.981Z,998.19
2019-05-20T12:53:26.923Z,998.14
2019-05-20T12:54:26.893Z,998.15
2019-05-20T12:55:26.882Z,998.17
2019-05-20T12:56:26.882Z,998.14
2019-05-20T12:57:27.870Z,998.15
2019-05-20T12:58:26.852Z,998.14
2019-05-20T12:59:26.835Z,998.13
2019-05-20T13:00:26.844Z,998.16
2019-05-20T13:01:26.810Z,998.18
2019-05-20T13:02:26.815Z,998.09
2019-05-20T13:03:26.816Z,998.12
2019-05-20T13:04:26.781Z,998.11
2019-05-20T13:05:26.767Z,998.15
2019-05-20T13:06:26.797Z,998.11
2019-05-20T13:07:26.759Z,998.14
2019-05-20T13:08:26.760Z,998.05
2019-05-20T13:09:26.738Z,998.09
2019-05-20T13:10:31.227Z,998.04
2019-05-20T13:11:26.709Z,998.04
2019-05-20T13:12:29.702Z,998.08
2019-05-20T13:13:26.685Z,998.05
2019-05-20T13:14:26.667Z,998.04
2019-05-20T13:15:26.668Z,998.02
2019-05-20T13:16:26.647Z,998.04
2019-05-20T13:17:26.674Z,998.02
2019-05-20T13:18:26.650Z,997.97
2019-05-20T13:19:26.644Z,997.98
2019-05-20T13:20:26.640Z,997.99
2019-05-20T13:21:26.642Z,997.94
2019-05-20T13:22:26.600Z,997.96
2019-05-20T13:23:26.600Z,997.96
2019-05-20T13:24:26.597Z,997.97
2019-05-20T13:25:26.659Z,997.98
2019-05-20T13:26:26.559Z,997.97
2019-05-20T13:27:26.533Z,997.93
2019-05-20T13:28:26.538Z,997.96
2019-05-20T13:29:26.524Z,997.95
2019-05-20T13:30:26.520Z,997.98
2019-05-20T13:31:26.525Z,997.99
2019-05-20T13:32:26.481Z,997.95
2019-05-20T13:33:26.465Z,998.00
2019-05-20T13:34:26.466Z,997.97
2019-05-20T13:35:26.437Z,997.94
2019-05-20T13:36:26.449Z,997.95
2019-05-20T13:37:26.426Z,997.93
2019-05-20T13:38:26.420Z,997.92
2019-05-20T13:39:26.411Z,997.94
2019-05-20T13:40:43.038Z,998.00
2019-05-20T13:41:51.092Z,997.95
2019-05-20T13:42:51.088Z,997.99
2019-05-20T13:43:51.066Z,997.96
2019-05-20T13:44:51.086Z,997.94
2019-05-20T13:45:51.111Z,997.96
2019-05-20T13:46:51.039Z,997.99
2019-05-20T13:47:51.043Z,998.00
2019-05-20T13:48:51.226Z,997.97
2019-05-20T13:49:51.005Z,997.95
2019-05-20T13:50:50.995Z,997.97
2019-05-20T13:51:50.976Z,998.00
2019-05-20T13:52:50.977Z,997.99
2019-05-20T13:53:51.013Z,998.00
2019-05-20T13:54:51.085Z,998.00
2019-05-20T13:55:50.934Z,997.97
2019-05-20T13:56:50.943Z,997.99
2019-05-20T13:57:50.919Z,997.98
2019-05-20T13:58:50.919Z,997.95
2019-05-20T13:59:50.934Z,998.01
2019-05-20T14:00:50.897Z,997.96
2019-05-20T14:01:50.872Z,998.01
2019-05-20T14:02:50.860Z,997.97
2019-05-20T14:03:50.853Z,997.97
2019-05-20T14:04:50.835Z,997.94
2019-05-20T14:05:50.825Z,997.97
2019-05-20T14:06:50.884Z,997.96
2019-05-20T14:07:50.799Z,997.92
2019-05-20T14:08:50.816Z,997.93
2019-05-20T14:09:50.790Z,997.93
2019-05-20T14:11:03.666Z,997.91
2019-05-20T14:12:12.692Z,997.91
2019-05-20T14:13:12.636Z,997.93
2019-05-20T14:14:14.352Z,997.98
2019-05-20T14:15:12.600Z,997.97
2019-05-20T14:16:12.599Z,997.93
2019-05-20T14:17:12.584Z,997.99
2019-05-20T14:18:12.886Z,997.88
2019-05-20T14:19:12.578Z,997.97
2019-05-20T14:20:12.544Z,997.99
2019-05-20T14:21:12.609Z,997.97
2019-05-20T14:22:12.524Z,997.97
2019-05-20T14:23:12.518Z,998.00
2019-05-20T14:24:12.514Z,997.95
2019-05-20T14:25:12.517Z,997.94
2019-05-20T14:26:12.493Z,997.94
2019-05-20T14:27:12.472Z,997.94
2019-05-20T14:28:12.454Z,997.93
2019-05-20T14:29:12.452Z,997.96
2019-05-20T14:30:12.435Z,997.95
2019-05-20T14:31:12.444Z,997.92
2019-05-20T14:32:12.475Z,997.94
2019-05-20T14:33:12.461Z,998.00
2019-05-20T14:34:12.387Z,997.99
2019-05-20T14:35:12.385Z,997.96
2019-05-20T14:36:12.373Z,998.00
2019-05-20T14:37:12.363Z,997.98
2019-05-20T14:38:12.344Z,998.00
2019-05-20T14:39:12.433Z,998.01
2019-05-20T14:40:12.341Z,998.01
2019-05-20T14:41:21.060Z,998.05
2019-05-20T14:42:34.603Z,998.03
2019-05-20T14:43:34.622Z,998.05
2019-05-20T14:44:34.560Z,998.03
2019-05-20T14:45:34.555Z,998.05
2019-05-20T14:46:34.608Z,998.06
2019-05-20T14:47:34.523Z,998.03
2019-05-20T14:48:34.520Z,998.08
2019-05-20T14:49:34.501Z,998.06
2019-05-20T14:50:34.498Z,998.04
2019-05-20T14:51:34.497Z,998.05
2019-05-20T14:52:34.487Z,998.09
2019-05-20T14:53:34.466Z,998.08
2019-05-20T14:54:34.463Z,998.07
2019-05-20T14:55:42.145Z,998.05
2019-05-20T14:56:56.406Z,998.06
2019-05-20T14:57:56.397Z,998.09
2019-05-20T14:58:56.382Z,998.08
2019-05-20T15:14:55.481Z,998.09
2019-05-20T15:15:55.490Z,998.09
2019-05-20T15:16:55.465Z,998.06
2019-05-20T15:17:55.466Z,998.09
2019-05-20T15:18:55.444Z,998.08
2019-05-20T15:19:55.483Z,998.13
2019-05-20T15:20:55.426Z,998.15
2019-05-20T15:21:55.406Z,998.16
2019-05-20T15:22:55.490Z,998.21
2019-05-20T15:23:55.406Z,998.08
2019-05-20T15:24:55.374Z,998.20
2019-05-20T15:25:55.364Z,998.21
2019-05-20T15:26:55.581Z,998.16
2019-05-20T15:27:55.352Z,998.16
2019-05-20T15:28:55.354Z,998.16
2019-05-20T15:29:55.318Z,998.17
2019-05-20T15:30:55.304Z,998.18
2019-05-20T15:31:55.292Z,998.16
2019-05-20T15:32:55.279Z,998.17
2019-05-20T15:33:55.277Z,998.14
2019-05-20T15:34:55.259Z,998.17
2019-05-20T15:35:55.256Z,998.15
2019-05-20T15:36:55.246Z,998.19
2019-05-20T15:37:55.230Z,998.14
2019-05-20T15:38:55.211Z,998.15
2019-05-20T15:39:55.226Z,998.16
2019-05-20T15:40:55.193Z,998.17
2019-05-20T15:41:55.213Z,998.14
2019-05-20T15:42:55.176Z,998.16
2019-05-20T15:43:55.188Z,998.12
2019-05-20T15:44:55.171Z,998.15
2019-05-20T15:45:55.137Z,998.13
2019-05-20T15:46:55.158Z,998.17
2019-05-20T15:47:55.150Z,998.16
2019-05-20T15:48:55.120Z,998.15
2019-05-20T15:49:55.088Z,998.16
2019-05-20T15:50:55.079Z,998.17
2019-05-20T15:51:55.075Z,998.18
2019-05-20T15:52:55.141Z,998.11
2019-05-20T15:53:55.057Z,998.17
2019-05-20T15:54:55.040Z,998.14
2019-05-20T15:55:55.049Z,998.10
2019-05-20T15:56:55.013Z,998.12
2019-05-20T15:57:55.002Z,998.11
2019-05-20T15:58:54.992Z,998.10
2019-05-20T15:59:54.989Z,998.13
2019-05-20T16:00:54.976Z,998.08
2019-05-20T16:01:54.981Z,998.14
2019-05-20T16:02:54.969Z,998.16
2019-05-20T16:03:54.941Z,998.14
2019-05-20T16:04:54.948Z,998.20
2019-05-20T16:05:54.911Z,998.18
2019-05-20T16:06:54.902Z,998.13
2019-05-20T16:07:54.894Z,998.15
2019-05-20T16:08:54.881Z,998.15
2019-05-20T16:09:54.910Z,998.17
2019-05-20T16:10:54.874Z,998.13
2019-05-20T16:11:54.871Z,998.16
2019-05-20T16:12:54.838Z,998.09
2019-05-20T16:13:54.845Z,998.19
2019-05-20T16:14:54.871Z,998.15
2019-05-20T16:15:54.808Z,998.18
2019-05-20T16:16:54.805Z,998.19
2019-05-20T16:17:54.803Z,998.15
2019-05-20T16:18:54.824Z,998.20
2019-05-20T16:19:54.806Z,998.16
2019-05-20T16:20:54.753Z,998.12
2019-05-20T16:21:54.747Z,998.17
2019-05-20T16:22:54.740Z,998.18
2019-05-20T16:23:54.744Z,998.19
2019-05-20T16:24:54.730Z,998.20
2019-05-20T16:25:54.709Z,998.21
2019-05-20T16:26:54.687Z,998.16
2019-05-20T16:27:54.671Z,998.22
2019-05-20T16:28:54.674Z,998.21
2019-05-20T16:30:06.368Z,998.23
2019-05-20T16:31:16.382Z,998.14
2019-05-20T16:32:16.390Z,998.20
2019-05-20T16:33:16.340Z,998.21
2019-05-20T16:34:16.341Z,998.18
2019-05-20T16:35:16.319Z,998.14
2019-05-20T16:36:16.313Z,998.14
2019-05-20T16:37:16.297Z,998.15
2019-05-20T16:38:16.287Z,998.15
2019-05-20T16:39:16.283Z,998.13
2019-05-20T16:40:16.277Z,998.07
2019-05-20T16:41:16.290Z,998.12
2019-05-20T16:42:16.264Z,998.15
2019-05-20T16:43:16.226Z,998.15
2019-05-20T16:44:16.217Z,998.16
2019-05-20T16:45:16.228Z,998.06
2019-05-20T16:46:16.206Z,998.07
2019-05-20T16:47:16.201Z,998.10
2019-05-20T16:48:16.225Z,998.13
2019-05-20T16:49:16.200Z,998.07
2019-05-20T16:50:16.157Z,998.13
2019-05-20T16:51:16.265Z,998.07
2019-05-20T16:52:16.128Z,998.12
2019-05-20T16:53:16.122Z,998.13
2019-05-20T16:54:16.108Z,998.12
2019-05-20T16:55:16.111Z,998.13
2019-05-20T16:56:16.087Z,998.19
2019-05-20T16:57:16.087Z,998.15
2019-05-20T16:58:16.063Z,998.13
2019-05-20T16:59:16.060Z,998.20
2019-05-20T17:00:30.971Z,998.16
2019-05-20T17:01:46.341Z,998.11
2019-05-20T17:02:59.568Z,998.05
2019-05-20T17:03:59.546Z,998.09
2019-05-20T17:04:59.533Z,998.07
2019-05-20T17:05:59.534Z,998.09
2019-05-20T17:06:59.520Z,998.06
2019-05-20T17:07:59.502Z,998.13
2019-05-20T17:08:59.489Z,998.14
2019-05-20T17:09:59.487Z,998.09
2019-05-20T17:10:59.469Z,998.17
2019-05-20T17:11:59.458Z,998.19
2019-05-20T17:12:59.454Z,998.16
2019-05-20T17:13:59.459Z,998.16
2019-05-20T17:14:59.432Z,998.21
2019-05-20T17:15:59.411Z,998.21
2019-05-20T17:16:59.415Z,998.23
2019-05-20T17:17:59.405Z,998.28
2019-05-20T17:18:59.407Z,998.30
2019-05-20T17:19:59.372Z,998.26
2019-05-20T17:20:59.375Z,998.33
2019-05-20T17:21:59.350Z,998.34
2019-05-20T17:22:59.341Z,998.38
2019-05-20T17:23:59.330Z,998.36
2019-05-20T17:24:59.334Z,998.40
2019-05-20T17:25:59.309Z,998.42
2019-05-20T17:26:59.299Z,998.39
2019-05-20T17:27:59.289Z,998.38
2019-05-20T17:28:59.273Z,998.41
2019-05-20T17:29:59.258Z,998.37
2019-05-20T17:30:59.248Z,998.43
2019-05-20T17:31:59.234Z,998.38
2019-05-20T17:32:59.232Z,998.36
2019-05-20T17:33:59.212Z,998.36
2019-05-20T17:34:59.206Z,998.36
2019-05-20T17:35:59.188Z,998.29
2019-05-20T17:36:59.189Z,998.29
2019-05-20T17:37:59.175Z,998.27
2019-05-20T17:38:59.156Z,998.28
2019-05-20T17:39:59.139Z,998.26
2019-05-20T17:40:59.352Z,998.23
2019-05-20T17:41:59.120Z,998.30
2019-05-20T17:42:59.108Z,998.25
2019-05-20T17:43:59.112Z,998.30
2019-05-20T17:44:59.085Z,998.29
2019-05-20T17:45:59.075Z,998.32
2019-05-20T17:46:59.071Z,998.35
2019-05-20T17:47:59.051Z,998.33
2019-05-20T17:48:59.039Z,998.38
2019-05-20T17:49:59.046Z,998.37
2019-05-20T17:50:59.034Z,998.37
2019-05-20T17:51:59.011Z,998.39
2019-05-20T17:52:59.014Z,998.37
2019-05-20T17:53:58.984Z,998.43
2019-05-20T17:54:58.964Z,998.43
2019-05-20T17:55:58.955Z,998.43
2019-05-20T17:56:58.956Z,998.45
2019-05-20T17:57:58.940Z,998.47
2019-05-20T17:58:58.926Z,998.45
2019-05-20T17:59:58.925Z,998.51
2019-05-20T18:01:14.261Z,998.46
2019-05-20T18:02:20.372Z,998.49
2019-05-20T18:03:20.357Z,998.49
2019-05-20T18:04:20.361Z,998.53
2019-05-20T18:05:20.340Z,998.51
2019-05-20T18:06:20.318Z,998.56
2019-05-20T18:07:20.310Z,998.51
2019-05-20T18:08:20.307Z,998.52
2019-05-20T18:09:20.283Z,998.53
2019-05-20T18:10:20.287Z,998.52
2019-05-20T18:11:20.279Z,998.54
2019-05-20T18:12:20.251Z,998.56
2019-05-20T18:13:20.246Z,998.64
2019-05-20T18:14:20.228Z,998.61
2019-05-20T18:15:20.236Z,998.66
2019-05-20T18:16:20.202Z,998.70
2019-05-20T18:17:20.200Z,998.74
2019-05-20T18:18:20.196Z,998.76
2019-05-20T18:19:20.182Z,998.73
2019-05-20T18:20:20.205Z,998.73
2019-05-20T18:21:20.161Z,998.68
2019-05-20T18:22:20.199Z,998.76
2019-05-20T18:23:20.135Z,998.77
2019-05-20T18:24:20.158Z,998.73
2019-05-20T18:25:20.134Z,998.75
2019-05-20T18:26:20.098Z,998.73
2019-05-20T18:27:20.109Z,998.71
2019-05-20T18:28:20.079Z,998.73
2019-05-20T18:29:20.069Z,998.73
2019-05-20T18:30:20.069Z,998.73
2019-05-20T18:31:31.999Z,998.75
2019-05-20T18:32:41.553Z,998.76
2019-05-20T18:33:41.539Z,998.75
2019-05-20T18:34:41.539Z,998.78
2019-05-20T18:35:41.514Z,998.81
2019-05-20T18:36:41.510Z,998.80
2019-05-20T18:37:41.490Z,998.83
2019-05-20T18:38:41.483Z,998.80
2019-05-20T18:39:41.467Z,998.80
2019-05-20T18:40:41.455Z,998.84
2019-05-20T18:41:41.442Z,998.80
2019-05-20T18:42:41.448Z,998.83
2019-05-20T18:43:41.431Z,998.79
2019-05-20T18:44:41.464Z,998.86
2019-05-20T18:45:41.406Z,998.87
2019-05-20T18:46:41.442Z,998.89
2019-05-20T18:47:41.393Z,998.88
2019-05-20T18:48:41.371Z,998.87
2019-05-20T18:49:41.490Z,998.84
2019-05-20T18:50:41.341Z,998.89
2019-05-20T18:51:41.341Z,998.89
2019-05-20T18:52:41.424Z,998.86
2019-05-20T18:53:41.308Z,998.85
2019-05-20T18:54:41.310Z,998.87
2019-05-20T18:55:41.286Z,998.89
2019-05-20T18:56:41.469Z,998.81
2019-05-20T18:57:41.270Z,998.81
2019-05-20T18:58:41.262Z,998.81
2019-05-20T18:59:41.249Z,998.81
2019-05-20T19:00:41.246Z,998.78
2019-05-20T19:01:50.883Z,998.80
2019-05-20T19:03:03.389Z,998.75
2019-05-20T19:04:03.427Z,998.73
2019-05-20T19:05:03.368Z,998.74
2019-05-20T19:06:03.359Z,998.76
2019-05-20T19:07:03.357Z,998.78
2019-05-20T19:08:03.334Z,998.75
2019-05-20T19:09:03.323Z,998.82
2019-05-20T19:10:03.311Z,998.81
2019-05-20T19:11:03.308Z,998.85
2019-05-20T19:12:03.287Z,998.86
2019-05-20T19:13:03.319Z,998.87
2019-05-20T19:14:03.301Z,998.87
2019-05-20T19:15:03.250Z,998.88
2019-05-20T19:16:03.238Z,998.87
2019-05-20T19:17:03.251Z,998.86
2019-05-20T19:18:03.262Z,998.86
2019-05-20T19:19:03.227Z,998.85
2019-05-20T19:20:03.202Z,998.90
2019-05-20T19:21:03.194Z,998.85
2019-05-20T19:22:03.187Z,998.86
2019-05-20T19:23:03.167Z,998.83
2019-05-20T19:24:03.158Z,998.89
2019-05-20T19:25:05.055Z,998.83
2019-05-20T19:26:03.143Z,998.91
2019-05-20T19:27:03.139Z,998.87
2019-05-20T19:28:03.130Z,998.86
2019-05-20T19:29:03.104Z,998.90
2019-05-20T19:30:03.099Z,998.90
2019-05-20T19:31:03.086Z,998.84
2019-05-20T19:35:03.028Z,998.86
2019-05-20T19:38:03.004Z,998.85